Time;durP1;ratioP1;P1;durP2;ratioP2;P2;SDS_P1;SDS_P2;PMS_P1;PMS_P2;Temp;Humidity;BMP_temperature;BMP_pressure;BME280_temperature;BME280_humidity;BME280_pressure;Samples;Min_cycle;Max_cycle;Signal;HPM_P1;HPM_P2
2023/06/15 00:01:58;;;;;;;5.88;4.22;;;20.60;96.70;;;;;;4889047;29;20117;-69
2023/06/15 00:04:26;;;;;;;9.13;4.93;;;20.60;96.70;;;;;;4886469;29;20056;-70
2023/06/15 00:06:55;;;;;;;4.95;4.13;;;20.50;96.70;;;;;;4888889;29;20044;-70
2023/06/15 00:09:23;;;;;;;4.85;4.45;;;20.60;96.70;;;;;;4887631;29;20040;-71
2023/06/15 00:11:51;;;;;;;6.55;4.22;;;20.50;96.70;;;;;;4905973;29;20499;-70
2023/06/15 00:14:19;;;;;;;8.10;4.43;;;20.40;96.70;;;;;;4887096;29;20684;-70
2023/06/15 00:16:47;;;;;;;4.88;4.18;;;20.40;96.70;;;;;;4888657;29;20044;-70
2023/06/15 00:19:17;;;;;;;5.47;4.05;;;20.50;96.70;;;;;;4886787;29;20055;-70
2023/06/15 00:21:47;;;;;;;7.45;4.13;;;20.50;96.70;;;;;;4886448;29;20749;-70
2023/06/15 00:24:15;;;;;;;4.70;3.55;;;20.40;96.70;;;;;;4892859;29;20588;-71
2023/06/15 00:26:44;;;;;;;4.07;3.67;;;20.50;96.70;;;;;;4887707;29;20053;-71
2023/06/15 00:29:12;;;;;;;4.43;4.00;;;20.50;96.70;;;;;;4888197;29;20052;-70
2023/06/15 00:31:40;;;;;;;5.93;3.90;;;20.50;96.70;;;;;;4888086;29;20051;-69
2023/06/15 00:34:09;;;;;;;5.70;3.50;;;20.40;96.70;;;;;;4907350;29;20048;-69
2023/06/15 00:36:40;;;;;;;4.18;3.78;;;20.40;96.70;;;;;;4887752;29;20050;-70
2023/06/15 00:39:09;;;;;;;6.57;4.00;;;20.40;96.70;;;;;;4887014;29;20135;-70
2023/06/15 00:41:51;;;;;;;4.70;3.80;;;20.50;96.70;;;;;;4888977;29;20051;-71
2023/06/15 00:44:20;;;;;;;4.68;3.60;;;20.40;96.70;;;;;;4889244;29;20052;-70
2023/06/15 00:46:48;;;;;;;6.00;4.68;;;20.40;96.70;;;;;;4889187;29;20051;-71
2023/06/15 00:49:17;;;;;;;7.72;4.15;;;20.40;96.70;;;;;;4889729;29;20064;-70
2023/06/15 00:51:47;;;;;;;5.20;4.35;;;20.30;96.70;;;;;;4891255;29;20233;-71
2023/06/15 00:54:21;;;;;;;4.72;3.97;;;20.30;96.70;;;;;;4887206;29;20392;-70
2023/06/15 00:56:49;;;;;;;5.63;4.50;;;20.20;96.70;;;;;;4873922;29;20056;-70
2023/06/15 00:59:18;;;;;;;7.07;4.25;;;20.20;96.70;;;;;;4903581;29;20498;-70
2023/06/15 01:01:47;;;;;;;7.18;4.10;;;20.20;96.70;;;;;;4890050;29;20052;-69
2023/06/15 01:04:17;;;;;;;5.03;3.97;;;20.20;96.70;;;;;;4876932;29;20159;-69
2023/06/15 01:06:51;;;;;;;5.65;4.25;;;20.20;96.70;;;;;;4893547;29;20040;-69
2023/06/15 01:09:26;;;;;;;5.15;4.47;;;20.30;96.70;;;;;;4896478;29;20056;-69
2023/06/15 01:11:57;;;;;;;5.00;3.95;;;20.20;96.70;;;;;;4887966;29;20063;-70
2023/06/15 01:14:27;;;;;;;5.25;4.75;;;20.00;96.70;;;;;;4889911;29;20105;-71
2023/06/15 01:17:05;;;;;;;4.97;4.20;;;20.10;96.70;;;;;;4902371;29;20044;-70
2023/06/15 01:19:53;;;;;;;5.82;3.75;;;20.00;96.70;;;;;;4889508;29;20033;-71
2023/06/15 01:22:45;;;;;;;5.18;4.57;;;20.10;96.70;;;;;;4892035;29;20051;-70
2023/06/15 01:25:26;;;;;;;4.85;3.63;;;20.20;96.70;;;;;;4901993;29;20048;-70
2023/06/15 01:28:01;;;;;;;5.68;3.30;;;20.20;96.70;;;;;;4906524;29;20052;-69
2023/06/15 01:30:33;;;;;;;5.30;3.97;;;20.20;96.70;;;;;;4891528;29;20641;-69
2023/06/15 01:33:01;;;;;;;4.07;3.67;;;20.20;96.70;;;;;;4891378;29;20072;-70
2023/06/15 01:35:29;;;;;;;3.85;3.45;;;20.20;96.70;;;;;;4890566;29;20529;-69
2023/06/15 01:37:57;;;;;;;4.57;3.58;;;20.20;96.70;;;;;;4892616;29;20044;-69
2023/06/15 01:40:25;;;;;;;4.22;3.83;;;20.20;96.70;;;;;;4886659;29;20055;-69
2023/06/15 01:42:53;;;;;;;5.88;4.35;;;20.20;96.70;;;;;;4891879;29;20149;-69
2023/06/15 01:45:23;;;;;;;4.38;3.63;;;20.20;96.70;;;;;;4893061;29;20142;-70
2023/06/15 01:47:51;;;;;;;3.60;3.30;;;20.20;96.70;;;;;;4890006;29;20523;-70
2023/06/15 01:50:20;;;;;;;3.50;3.13;;;20.10;96.70;;;;;;4909196;29;20175;-69
2023/06/15 01:52:48;;;;;;;3.20;2.90;;;20.00;96.70;;;;;;4887483;29;20452;-70
2023/06/15 01:55:16;;;;;;;4.10;2.97;;;20.10;96.70;;;;;;4887474;29;20157;-69
2023/06/15 01:57:47;;;;;;;3.10;2.80;;;20.10;96.70;;;;;;4905376;29;20088;-69
2023/06/15 02:00:16;;;;;;;4.63;2.80;;;20.00;96.70;;;;;;4893681;29;20687;-69
2023/06/15 02:02:45;;;;;;;5.38;2.97;;;20.00;96.70;;;;;;4897877;29;20036;-69
2023/06/15 02:05:14;;;;;;;7.05;3.28;;;20.00;96.70;;;;;;4911130;29;20052;-69
2023/06/15 02:07:42;;;;;;;5.30;3.33;;;19.90;96.70;;;;;;4898351;29;20056;-69
2023/06/15 02:10:10;;;;;;;9.02;3.78;;;19.80;96.70;;;;;;4896662;29;20140;-70
2023/06/15 02:12:38;;;;;;;7.72;3.85;;;19.80;96.70;;;;;;4909489;29;20044;-69
2023/06/15 02:15:17;;;;;;;7.75;4.53;;;19.70;96.70;;;;;;4878599;29;20044;-69
2023/06/15 02:17:48;;;;;;;6.07;3.83;;;19.80;96.70;;;;;;4893502;29;20040;-69
2023/06/15 02:20:16;;;;;;;8.40;4.00;;;19.70;96.70;;;;;;4890613;29;20056;-69
2023/06/15 02:22:44;;;;;;;5.97;5.25;;;19.70;96.70;;;;;;4892963;29;20499;-69
2023/06/15 02:25:13;;;;;;;6.55;4.00;;;19.80;96.70;;;;;;4896262;29;20123;-70
2023/06/15 02:27:43;;;;;;;4.72;3.40;;;19.70;96.70;;;;;;4888674;29;20144;-70
2023/06/15 02:30:12;;;;;;;4.28;2.90;;;19.60;96.70;;;;;;4909619;29;20036;-70
2023/06/15 02:32:42;;;;;;;3.67;2.75;;;19.60;96.70;;;;;;4895951;29;20131;-70
2023/06/15 02:35:12;;;;;;;2.33;1.95;;;19.70;96.70;;;;;;4891961;29;20491;-70
2023/06/15 02:37:40;;;;;;;1.95;1.67;;;19.70;96.70;;;;;;4891463;29;20052;-69
2023/06/15 02:40:12;;;;;;;2.03;1.60;;;19.80;96.70;;;;;;4889508;29;20096;-69
2023/06/15 02:42:40;;;;;;;2.80;1.90;;;19.70;96.70;;;;;;4905358;29;20053;-69
2023/06/15 02:45:10;;;;;;;3.10;1.60;;;19.60;96.70;;;;;;4892904;29;20438;-70
2023/06/15 02:47:38;;;;;;;3.60;1.98;;;19.70;96.70;;;;;;4889753;29;20055;-70
2023/06/15 02:50:08;;;;;;;3.35;2.13;;;19.70;96.70;;;;;;4888795;29;20048;-70
2023/06/15 02:52:45;;;;;;;2.03;1.83;;;19.70;96.70;;;;;;4891002;29;20076;-71
2023/06/15 02:55:14;;;;;;;2.90;1.67;;;19.70;96.70;;;;;;4895180;29;20506;-70
2023/06/15 02:57:44;;;;;;;2.08;1.63;;;19.70;96.70;;;;;;4893067;29;20082;-70
2023/06/15 03:00:32;;;;;;;2.35;2.00;;;19.70;96.70;;;;;;4899385;29;20138;-70
2023/06/15 03:03:22;;;;;;;2.72;1.70;;;19.70;96.70;;;;;;4908095;29;20632;-70
2023/06/15 03:05:51;;;;;;;3.80;1.77;;;19.70;96.70;;;;;;4904164;29;20052;-70
2023/06/15 03:08:23;;;;;;;2.40;1.70;;;19.70;96.70;;;;;;4884456;29;20072;-70
2023/06/15 03:10:55;;;;;;;2.08;1.50;;;19.60;96.70;;;;;;4891470;29;20474;-70
2023/06/15 03:13:24;;;;;;;4.07;1.80;;;19.60;96.70;;;;;;4893717;29;20482;-70
2023/06/15 03:15:54;;;;;;;3.05;1.55;;;19.50;96.70;;;;;;4905684;29;20048;-70
2023/06/15 03:18:22;;;;;;;1.80;1.42;;;19.60;96.70;;;;;;4878638;29;20144;-70
2023/06/15 03:20:52;;;;;;;3.67;1.88;;;19.60;96.70;;;;;;4891409;29;20042;-71
2023/06/15 03:23:23;;;;;;;5.63;1.75;;;19.60;96.70;;;;;;4890745;29;20040;-70
2023/06/15 03:25:52;;;;;;;3.53;1.17;;;19.50;96.70;;;;;;4896256;29;20044;-70
2023/06/15 03:28:46;;;;;;;5.53;1.60;;;19.60;96.70;;;;;;4890069;29;20040;-70
2023/06/15 03:31:17;;;;;;;4.68;1.58;;;19.60;96.70;;;;;;4888050;29;20052;-70
2023/06/15 03:33:47;;;;;;;3.65;1.52;;;19.50;96.70;;;;;;4890712;29;20119;-70
2023/06/15 03:36:18;;;;;;;1.90;1.58;;;19.50;96.70;;;;;;4901917;29;20608;-70
2023/06/15 03:38:50;;;;;;;2.33;1.30;;;19.50;96.70;;;;;;4904328;29;20194;-70
2023/06/15 03:41:18;;;;;;;2.65;1.52;;;19.50;96.70;;;;;;4904500;29;20048;-70
2023/06/15 03:43:47;;;;;;;1.55;1.15;;;19.40;96.70;;;;;;4884952;29;20046;-70
2023/06/15 03:46:15;;;;;;;4.22;1.33;;;19.30;96.70;;;;;;4891100;29;20049;-69
2023/06/15 03:48:43;;;;;;;3.22;1.38;;;19.20;96.70;;;;;;4898634;29;20045;-69
2023/06/15 03:51:12;;;;;;;2.33;1.10;;;19.10;96.70;;;;;;4885824;29;20514;-69
2023/06/15 03:53:42;;;;;;;1.65;1.25;;;19.30;96.70;;;;;;4887822;29;20451;-69
2023/06/15 03:56:12;;;;;;;1.52;1.13;;;19.20;96.70;;;;;;4902976;29;20057;-69
2023/06/15 03:58:40;;;;;;;3.20;1.13;;;19.30;96.70;;;;;;4904018;29;20565;-69
2023/06/15 04:01:12;;;;;;;1.77;1.30;;;19.40;96.70;;;;;;4905916;29;20154;-70
2023/06/15 04:03:41;;;;;;;2.17;1.15;;;19.30;96.70;;;;;;4887479;29;20072;-70
2023/06/15 04:06:09;;;;;;;3.50;1.40;;;19.30;96.70;;;;;;4888373;29;20048;-70
2023/06/15 04:08:37;;;;;;;2.28;1.65;;;19.30;96.70;;;;;;4889734;29;20226;-70
2023/06/15 04:11:07;;;;;;;2.85;1.70;;;19.40;96.70;;;;;;4901579;29;20052;-70
2023/06/15 04:13:37;;;;;;;1.88;1.70;;;19.40;96.70;;;;;;4892316;29;20079;-70
2023/06/15 04:16:06;;;;;;;2.33;2.10;;;19.40;96.70;;;;;;4888771;29;20060;-70
2023/06/15 04:18:34;;;;;;;4.18;2.38;;;19.20;96.70;;;;;;4890798;29;20062;-71
2023/06/15 04:21:04;;;;;;;3.25;2.20;;;19.10;96.70;;;;;;4906298;29;20666;-70
2023/06/15 04:23:33;;;;;;;3.17;1.80;;;19.00;96.70;;;;;;4890053;29;20045;-70
2023/06/15 04:26:03;;;;;;;3.42;2.08;;;19.00;96.70;;;;;;4903500;29;20044;-70
2023/06/15 04:28:33;;;;;;;5.13;2.42;;;19.20;96.70;;;;;;4896406;29;20120;-70
2023/06/15 04:31:10;;;;;;;3.20;2.35;;;19.30;96.70;;;;;;4890046;29;20100;-70
2023/06/15 04:33:42;;;;;;;2.70;1.95;;;19.30;96.70;;;;;;4871016;29;20877;-70
2023/06/15 04:36:12;;;;;;;4.57;2.30;;;19.30;96.70;;;;;;4892122;29;20471;-70
2023/06/15 04:38:48;;;;;;;4.95;2.97;;;19.30;96.70;;;;;;4893597;29;20048;-70
2023/06/15 04:41:22;;;;;;;2.63;2.30;;;19.20;96.70;;;;;;4890985;29;20064;-69
2023/06/15 04:43:57;;;;;;;3.08;2.55;;;19.10;96.70;;;;;;4905601;29;20052;-69
2023/06/15 04:46:27;;;;;;;3.17;2.33;;;19.10;96.70;;;;;;4907795;29;20557;-69
2023/06/15 04:48:56;;;;;;;3.38;2.85;;;19.10;96.70;;;;;;4896505;29;20051;-69
2023/06/15 04:51:31;;;;;;;3.05;2.75;;;19.20;96.70;;;;;;4894589;29;20174;-70
2023/06/15 04:53:59;;;;;;;4.07;3.27;;;19.30;96.70;;;;;;4889204;29;20601;-70
2023/06/15 04:56:28;;;;;;;3.10;2.80;;;19.50;96.70;;;;;;4908428;29;20048;-70
2023/06/15 04:58:57;;;;;;;3.17;2.65;;;19.60;96.70;;;;;;4890595;29;20055;-69
2023/06/15 05:01:29;;;;;;;3.40;2.83;;;19.50;96.70;;;;;;4890837;29;20590;-70
2023/06/15 05:03:58;;;;;;;4.22;3.42;;;19.60;96.70;;;;;;4901987;29;20082;-68
2023/06/15 05:06:26;;;;;;;4.80;3.63;;;19.80;96.70;;;;;;4891227;29;20044;-69
2023/06/15 05:08:55;;;;;;;6.00;3.22;;;19.90;96.70;;;;;;4892605;29;20437;-69
2023/06/15 05:11:24;;;;;;;4.47;4.03;;;19.90;96.70;;;;;;4907381;29;20443;-69
2023/06/15 05:13:54;;;;;;;4.28;3.88;;;19.90;96.70;;;;;;4903556;29;20672;-69
2023/06/15 05:16:22;;;;;;;4.88;3.80;;;19.70;96.70;;;;;;4905941;29;20419;-69
2023/06/15 05:18:52;;;;;;;4.63;3.95;;;19.80;96.70;;;;;;4889548;29;20049;-69
2023/06/15 05:21:22;;;;;;;4.25;3.58;;;19.80;96.70;;;;;;4887211;29;20052;-70
2023/06/15 05:23:52;;;;;;;3.78;3.30;;;19.80;96.70;;;;;;4890406;29;20048;-70
2023/06/15 05:26:20;;;;;;;6.20;4.00;;;19.80;96.70;;;;;;4886394;29;20163;-68
2023/06/15 05:29:02;;;;;;;5.03;3.30;;;20.00;96.70;;;;;;4895070;29;20060;-69
2023/06/15 05:31:30;;;;;;;4.90;3.85;;;20.00;96.70;;;;;;4902773;29;20052;-69
2023/06/15 05:34:01;;;;;;;5.53;3.80;;;20.00;96.70;;;;;;4887599;29;20124;-69
2023/06/15 05:36:33;;;;;;;6.35;4.28;;;20.10;96.70;;;;;;4889047;29;20048;-70
2023/06/15 05:39:22;;;;;;;4.78;3.20;;;20.20;96.70;;;;;;4872347;29;20044;-70
2023/06/15 05:41:51;;;;;;;6.20;4.97;;;20.30;96.70;;;;;;4889905;29;20058;-70
2023/06/15 05:44:19;;;;;;;5.80;4.35;;;20.30;96.70;;;;;;4908708;29;20138;-70
2023/06/15 05:46:47;;;;;;;7.28;4.13;;;20.30;96.70;;;;;;4891195;29;20048;-73
2023/06/15 05:49:18;;;;;;;5.45;3.88;;;20.10;96.70;;;;;;4905179;29;20048;-73
2023/06/15 05:51:47;;;;;;;9.10;5.10;;;20.20;96.70;;;;;;4891953;29;20323;-69
2023/06/15 05:54:16;;;;;;;8.35;4.75;;;20.20;96.70;;;;;;4883543;29;20044;-70
2023/06/15 05:56:44;;;;;;;6.25;4.53;;;20.30;96.70;;;;;;4904090;29;20156;-69
2023/06/15 05:59:13;;;;;;;6.80;4.10;;;20.50;96.70;;;;;;4888759;29;20451;-70
2023/06/15 06:02:00;;;;;;;6.07;4.70;;;20.60;96.70;;;;;;4893636;29;20053;-70
2023/06/15 06:04:33;;;;;;;6.00;3.80;;;20.70;96.70;;;;;;4905357;29;20049;-70
2023/06/15 06:07:02;;;;;;;6.13;3.60;;;20.80;96.70;;;;;;4886368;29;20064;-70
2023/06/15 06:09:30;;;;;;;5.40;4.80;;;20.90;96.70;;;;;;4894063;29;20840;-70
2023/06/15 06:12:00;;;;;;;7.30;5.10;;;20.90;96.70;;;;;;4892452;29;20040;-70
2023/06/15 06:14:28;;;;;;;6.43;5.43;;;20.70;96.70;;;;;;4903938;29;20139;-69
2023/06/15 06:16:56;;;;;;;9.45;4.88;;;20.70;96.70;;;;;;4882632;29;20143;-70
2023/06/15 06:19:25;;;;;;;7.47;5.43;;;20.70;96.70;;;;;;4877830;29;20649;-70
2023/06/15 06:21:55;;;;;;;6.28;4.90;;;20.80;96.70;;;;;;4903073;29;20424;-70
2023/06/15 06:24:23;;;;;;;6.20;4.63;;;20.90;96.70;;;;;;4904105;29;20052;-69
2023/06/15 06:26:53;;;;;;;6.63;4.80;;;20.90;96.70;;;;;;4904542;29;20064;-69
2023/06/15 06:29:21;;;;;;;6.63;4.38;;;21.00;96.70;;;;;;4888927;29;20052;-70
2023/06/15 06:31:49;;;;;;;6.88;4.15;;;21.10;96.70;;;;;;4889483;29;20080;-70
2023/06/15 06:34:18;;;;;;;4.90;3.70;;;21.20;96.70;;;;;;4890741;29;20127;-70
2023/06/15 06:36:47;;;;;;;6.05;3.40;;;21.20;96.70;;;;;;4890393;29;20080;-70
2023/06/15 06:39:16;;;;;;;5.55;3.35;;;21.30;96.70;;;;;;4889731;29;20503;-70
2023/06/15 06:41:45;;;;;;;5.80;3.55;;;21.30;96.70;;;;;;4904775;29;20167;-71
2023/06/15 06:44:26;;;;;;;4.50;3.47;;;21.30;96.70;;;;;;4888647;29;20048;-70
2023/06/15 06:46:56;;;;;;;8.48;3.20;;;21.40;96.70;;;;;;4890244;29;20468;-71
2023/06/15 06:49:24;;;;;;;7.13;3.15;;;21.50;96.70;;;;;;4887722;29;20546;-70
2023/06/15 06:51:52;;;;;;;4.45;2.92;;;21.60;96.70;;;;;;4903624;29;20605;-71
2023/06/15 06:54:26;;;;;;;4.13;2.97;;;21.60;96.70;;;;;;4889296;29;20044;-71
2023/06/15 06:56:54;;;;;;;5.18;3.38;;;21.60;96.70;;;;;;4889146;29;20065;-70
2023/06/15 06:59:22;;;;;;;4.18;2.60;;;21.60;96.70;;;;;;4889846;29;20044;-70
2023/06/15 07:02:10;;;;;;;4.72;2.90;;;21.70;96.70;;;;;;4889610;29;20641;-69
2023/06/15 07:04:38;;;;;;;3.88;2.60;;;21.80;96.70;;;;;;4904150;29;20048;-69
2023/06/15 07:07:06;;;;;;;6.20;3.33;;;21.90;96.70;;;;;;4889694;29;20518;-70
2023/06/15 07:09:36;;;;;;;4.90;2.83;;;21.90;96.70;;;;;;4889671;29;20131;-70
2023/06/15 07:12:05;;;;;;;4.65;3.13;;;22.00;96.70;;;;;;4887501;29;20602;-70
2023/06/15 07:14:33;;;;;;;3.35;2.70;;;22.00;96.70;;;;;;4888502;29;21251;-69
2023/06/15 07:17:01;;;;;;;5.72;3.13;;;22.10;96.70;;;;;;4889178;29;20044;-70
2023/06/15 07:19:29;;;;;;;5.18;3.08;;;22.20;96.70;;;;;;4870410;29;20048;-70
2023/06/15 07:21:57;;;;;;;3.80;3.08;;;22.30;96.70;;;;;;4887833;29;20601;-70
2023/06/15 07:24:25;;;;;;;4.47;3.00;;;22.40;96.70;;;;;;4903634;29;20155;-70
2023/06/15 07:26:56;;;;;;;4.07;2.90;;;22.50;96.70;;;;;;4903688;29;20554;-69
2023/06/15 07:29:25;;;;;;;3.20;2.90;;;22.60;96.70;;;;;;4888010;29;20061;-70
2023/06/15 07:31:53;;;;;;;7.20;3.80;;;22.70;96.70;;;;;;4888314;29;20052;-70
2023/06/15 07:34:23;;;;;;;5.10;3.15;;;22.70;96.70;;;;;;4889913;29;20033;-70
2023/06/15 07:36:52;;;;;;;4.25;2.97;;;22.70;96.70;;;;;;4889815;29;20048;-70
2023/06/15 07:39:20;;;;;;;4.70;3.20;;;22.70;96.70;;;;;;4889531;29;20047;-70
2023/06/15 07:41:48;;;;;;;4.65;2.97;;;22.70;96.70;;;;;;4889683;29;20136;-69
2023/06/15 07:44:17;;;;;;;4.28;3.38;;;22.80;96.70;;;;;;4889004;29;20049;-69
2023/06/15 07:46:46;;;;;;;4.97;2.92;;;22.90;96.70;;;;;;4889319;29;20067;-70
2023/06/15 07:49:14;;;;;;;3.38;2.97;;;22.90;96.70;;;;;;4889424;29;20391;-69
2023/06/15 07:51:43;;;;;;;7.20;3.80;;;22.90;96.70;;;;;;4888554;29;20045;-71
2023/06/15 07:54:30;;;;;;;5.50;3.63;;;23.00;96.70;;;;;;4888379;29;20108;-70
2023/06/15 07:56:58;;;;;;;5.22;3.28;;;23.00;96.70;;;;;;4888899;29;20479;-71
2023/06/15 07:59:28;;;;;;;5.72;3.30;;;23.10;96.70;;;;;;4889170;29;20076;-71
2023/06/15 08:01:56;;;;;;;4.20;3.08;;;23.20;96.70;;;;;;4888282;29;20060;-70
2023/06/15 08:04:24;;;;;;;4.72;3.22;;;23.20;96.70;;;;;;4887363;29;20156;-69
2023/06/15 08:06:52;;;;;;;6.07;3.58;;;23.30;96.70;;;;;;4903099;29;20052;-71
2023/06/15 08:09:22;;;;;;;7.93;3.50;;;23.30;96.70;;;;;;4903316;29;20060;-70
2023/06/15 08:11:50;;;;;;;4.10;3.60;;;23.40;96.70;;;;;;4903469;29;20140;-70
2023/06/15 08:14:19;;;;;;;4.30;3.90;;;23.60;96.70;;;;;;4887268;29;20057;-69
2023/06/15 08:16:49;;;;;;;3.63;3.33;;;23.70;96.70;;;;;;4888570;29;20045;-69
2023/06/15 08:19:17;;;;;;;3.80;3.45;;;23.80;96.70;;;;;;4888653;29;20048;-70
2023/06/15 08:21:45;;;;;;;3.65;3.35;;;23.90;96.70;;;;;;4888490;29;20133;-71
2023/06/15 08:24:13;;;;;;;4.25;3.70;;;23.90;96.70;;;;;;4888149;29;20044;-71
2023/06/15 08:26:42;;;;;;;3.65;3.30;;;24.00;96.70;;;;;;4888463;29;20051;-70
2023/06/15 08:29:10;;;;;;;4.45;3.90;;;24.00;96.70;;;;;;4886418;29;20084;-70
2023/06/15 08:31:41;;;;;;;7.55;3.75;;;24.10;96.70;;;;;;4887876;29;20049;-70
2023/06/15 08:34:12;;;;;;;4.90;4.00;;;24.20;96.70;;;;;;4886862;29;20044;-70
2023/06/15 08:36:40;;;;;;;4.60;3.90;;;24.30;96.70;;;;;;4886898;29;20590;-70
2023/06/15 08:39:10;;;;;;;3.92;3.53;;;24.20;96.70;;;;;;4888609;29;20444;-70
2023/06/15 08:41:39;;;;;;;4.45;4.05;;;24.00;96.70;;;;;;4887573;29;20131;-70
2023/06/15 08:44:08;;;;;;;9.95;3.90;;;24.00;96.70;;;;;;4888365;29;20052;-70
2023/06/15 08:46:36;;;;;;;3.97;3.25;;;24.10;96.70;;;;;;4887147;29;20379;-70
2023/06/15 08:49:05;;;;;;;3.90;3.50;;;24.00;96.70;;;;;;4887944;29;20100;-70
2023/06/15 08:51:37;;;;;;;7.88;3.97;;;24.10;96.70;;;;;;4902154;29;20041;-70
2023/06/15 08:54:09;;;;;;;4.50;3.80;;;24.20;96.70;;;;;;4901172;29;20052;-70
2023/06/15 08:56:38;;;;;;;3.50;3.20;;;24.30;96.70;;;;;;4888029;29;20055;-70
2023/06/15 08:59:07;;;;;;;5.18;3.35;;;24.30;96.70;;;;;;4887782;29;20123;-70
2023/06/15 09:01:40;;;;;;;4.72;3.38;;;24.20;96.70;;;;;;4888434;29;20127;-70
2023/06/15 09:04:08;;;;;;;4.05;3.35;;;24.30;96.70;;;;;;4886626;29;20136;-70
2023/06/15 09:06:38;;;;;;;3.88;2.60;;;24.70;96.70;;;;;;4887872;29;20725;-70
2023/06/15 09:09:09;;;;;;;3.42;3.00;;;24.90;96.70;;;;;;4889171;29;20131;-70
2023/06/15 09:11:41;;;;;;;3.17;2.88;;;24.80;96.70;;;;;;4890320;29;20041;-71
2023/06/15 09:14:10;;;;;;;4.60;2.70;;;24.70;96.70;;;;;;4892191;29;20045;-71
2023/06/15 09:16:39;;;;;;;3.47;2.67;;;24.60;96.70;;;;;;4890594;29;20447;-71
2023/06/15 09:19:11;;;;;;;4.10;2.72;;;24.60;96.70;;;;;;4891141;29;20045;-71
2023/06/15 09:21:42;;;;;;;3.33;3.05;;;24.70;96.70;;;;;;4890319;29;20076;-70
2023/06/15 09:24:12;;;;;;;3.03;2.72;;;24.90;96.70;;;;;;4891746;29;20053;-72
2023/06/15 09:26:45;;;;;;;2.75;2.42;;;25.00;96.70;;;;;;4892014;29;20049;-72
2023/06/15 09:29:14;;;;;;;4.40;2.80;;;25.00;96.70;;;;;;4904838;29;20114;-70
2023/06/15 09:31:44;;;;;;;8.88;3.30;;;25.00;96.70;;;;;;4891943;29;20052;-70
2023/06/15 09:34:14;;;;;;;2.53;2.10;;;25.00;96.70;;;;;;4891437;29;20079;-71
2023/06/15 09:36:50;;;;;;;5.65;2.80;;;24.90;96.70;;;;;;4890726;29;20192;-71
2023/06/15 09:39:24;;;;;;;2.60;2.40;;;25.00;96.70;;;;;;4891647;29;20074;-70
2023/06/15 09:41:53;;;;;;;4.07;2.55;;;25.00;96.70;;;;;;4891642;29;20052;-71
2023/06/15 09:44:22;;;;;;;5.15;3.05;;;25.10;96.70;;;;;;4891669;29;20191;-70
2023/06/15 09:46:51;;;;;;;3.15;2.30;;;25.00;96.70;;;;;;4891507;29;20111;-70
2023/06/15 09:49:21;;;;;;;4.07;2.30;;;25.00;96.70;;;;;;4891365;29;20049;-70
2023/06/15 09:51:51;;;;;;;4.28;3.10;;;25.00;96.70;;;;;;4889436;29;20057;-71
2023/06/15 09:54:22;;;;;;;2.92;2.17;;;25.30;96.70;;;;;;4889441;29;20056;-70
2023/06/15 09:56:51;;;;;;;2.60;2.40;;;25.50;96.70;;;;;;4889542;29;20063;-70
2023/06/15 09:59:20;;;;;;;2.42;2.10;;;25.70;96.70;;;;;;4891338;29;20048;-70
2023/06/15 10:01:50;;;;;;;2.63;2.00;;;25.80;96.70;;;;;;4905288;29;20573;-70
2023/06/15 10:04:21;;;;;;;2.30;2.10;;;26.00;96.70;;;;;;4890514;29;20604;-71
2023/06/15 10:06:55;;;;;;;2.58;1.90;;;26.20;96.70;;;;;;4891550;29;20056;-70
2023/06/15 10:09:28;;;;;;;2.42;2.17;;;26.40;96.70;;;;;;4891185;29;20048;-70
2023/06/15 10:12:02;;;;;;;3.15;2.05;;;26.40;96.70;;;;;;4891561;29;20056;-70
2023/06/15 10:14:34;;;;;;;2.08;1.90;;;26.70;96.70;;;;;;4890430;29;20045;-70
2023/06/15 10:17:06;;;;;;;2.03;1.83;;;26.60;96.70;;;;;;4882966;29;20582;-72
2023/06/15 10:19:41;;;;;;;2.35;2.15;;;26.60;96.70;;;;;;4890399;29;20045;-72
2023/06/15 10:22:15;;;;;;;2.53;2.33;;;26.70;96.70;;;;;;4889244;29;20047;-72
2023/06/15 10:24:45;;;;;;;3.13;2.03;;;26.80;96.70;;;;;;4889656;29;20514;-71
2023/06/15 10:27:15;;;;;;;3.85;2.38;;;27.00;96.70;;;;;;4874499;29;20044;-70
2023/06/15 10:29:51;;;;;;;2.67;1.77;;;27.20;96.70;;;;;;4890460;29;20052;-70
2023/06/15 10:32:28;;;;;;;3.13;2.40;;;27.30;96.70;;;;;;4890406;29;20057;-70
2023/06/15 10:35:05;;;;;;;2.65;1.98;;;27.10;96.70;;;;;;4890326;29;20108;-70
2023/06/15 10:37:40;;;;;;;2.92;1.80;;;27.00;96.70;;;;;;4890228;29;20053;-70
2023/06/15 10:40:13;;;;;;;1.77;1.63;;;26.90;96.70;;;;;;4889190;29;20116;-70
2023/06/15 10:42:43;;;;;;;2.65;2.00;;;27.30;96.70;;;;;;4890426;29;20319;-69
2023/06/15 10:45:31;;;;;;;4.22;2.30;;;27.50;96.70;;;;;;4888053;29;20052;-69
2023/06/15 10:48:00;;;;;;;2.38;2.17;;;27.50;96.70;;;;;;4885381;29;20053;-70
2023/06/15 10:50:38;;;;;;;1.85;1.75;;;27.40;96.70;;;;;;4889684;29;20104;-70
2023/06/15 10:53:21;;;;;;;3.10;2.00;;;27.60;96.70;;;;;;4889338;29;20134;-70
2023/06/15 10:55:53;;;;;;;3.53;2.10;;;27.80;96.70;;;;;;4888562;29;20559;-70
2023/06/15 10:58:21;;;;;;;2.42;2.00;;;28.00;96.70;;;;;;4890415;29;20044;-70
2023/06/15 11:01:07;;;;;;;2.33;1.98;;;28.00;96.70;;;;;;4888994;29;20047;-70
2023/06/15 11:03:35;;;;;;;2.47;1.70;;;28.10;96.70;;;;;;4897080;29;20572;-70
2023/06/15 11:06:06;;;;;;;2.17;1.98;;;28.30;96.70;;;;;;4904007;29;20044;-70
2023/06/15 11:08:49;;;;;;;2.30;1.52;;;28.40;96.70;;;;;;4890032;29;20048;-70
2023/06/15 11:11:19;;;;;;;2.55;1.60;;;28.40;96.70;;;;;;4887402;29;20175;-69
2023/06/15 11:13:55;;;;;;;2.05;1.85;;;28.70;96.70;;;;;;4889906;29;20040;-71
2023/06/15 11:16:28;;;;;;;3.00;2.30;;;28.90;96.70;;;;;;4889752;29;20048;-71
2023/06/15 11:19:18;;;;;;;2.38;2.00;;;28.80;96.70;;;;;;4888154;29;20041;-71
2023/06/15 11:21:56;;;;;;;1.98;1.85;;;29.00;96.70;;;;;;4897368;29;20072;-71
2023/06/15 11:24:37;;;;;;;2.78;1.70;;;29.00;96.70;;;;;;4888643;29;20078;-71
2023/06/15 11:27:08;;;;;;;2.03;1.55;;;29.40;96.70;;;;;;4888671;29;20189;-72
2023/06/15 11:29:38;;;;;;;2.53;2.03;;;29.50;96.70;;;;;;4887851;29;20139;-71
2023/06/15 11:32:07;;;;;;;2.05;1.63;;;29.20;96.70;;;;;;4887454;29;20072;-71
2023/06/15 11:34:36;;;;;;;2.65;1.95;;;29.50;96.70;;;;;;4889640;29;20071;-73
2023/06/15 11:37:05;;;;;;;2.20;1.60;;;29.70;96.70;;;;;;4884355;29;20163;-71
2023/06/15 11:39:35;;;;;;;4.10;1.63;;;29.90;96.70;;;;;;4887766;29;20072;-71
2023/06/15 11:42:05;;;;;;;1.90;1.67;;;30.00;96.70;;;;;;4881553;29;20040;-71
2023/06/15 11:44:39;;;;;;;3.22;1.70;;;29.90;96.70;;;;;;4889886;29;20067;-71
2023/06/15 11:47:12;;;;;;;1.83;1.60;;;29.70;96.70;;;;;;4889142;29;20421;-71
2023/06/15 11:49:40;;;;;;;3.10;1.73;;;29.80;96.70;;;;;;4887738;29;20045;-70
2023/06/15 11:52:09;;;;;;;2.67;1.55;;;30.30;96.70;;;;;;4888230;29;20041;-70
2023/06/15 11:54:38;;;;;;;2.38;1.90;;;30.40;96.70;;;;;;4890628;29;20051;-70
2023/06/15 11:57:20;;;;;;;1.80;1.55;;;30.20;96.70;;;;;;4888203;29;20036;-71
2023/06/15 11:59:48;;;;;;;1.85;1.40;;;30.20;96.70;;;;;;4903129;29;20067;-69
2023/06/15 12:02:17;;;;;;;2.63;1.60;;;30.20;96.70;;;;;;4887520;29;20124;-69
2023/06/15 12:04:47;;;;;;;2.22;1.75;;;29.80;96.70;;;;;;4882257;29;20051;-69
2023/06/15 12:07:17;;;;;;;1.80;1.63;;;29.90;96.70;;;;;;4902641;29;20103;-69
2023/06/15 12:10:07;;;;;;;1.80;1.42;;;29.80;96.70;;;;;;4891661;29;20091;-69
2023/06/15 12:12:36;;;;;;;1.50;1.40;;;30.10;96.70;;;;;;4881775;29;20123;-69
2023/06/15 12:15:05;;;;;;;2.78;1.60;;;30.20;96.70;;;;;;4887204;29;20040;-69
2023/06/15 12:17:35;;;;;;;1.98;1.38;;;30.30;96.70;;;;;;4885975;29;20501;-69
2023/06/15 12:20:11;;;;;;;4.75;1.63;;;30.40;96.70;;;;;;4886215;29;20045;-69
2023/06/15 12:22:43;;;;;;;3.33;1.80;;;30.40;96.70;;;;;;4888569;29;20473;-70
2023/06/15 12:25:13;;;;;;;2.53;1.60;;;30.50;96.70;;;;;;4888410;29;21235;-68
2023/06/15 12:27:42;;;;;;;3.75;1.60;;;30.40;96.70;;;;;;4886136;29;20894;-69
2023/06/15 12:30:13;;;;;;;2.75;1.98;;;30.40;96.70;;;;;;4888401;29;20463;-69
2023/06/15 12:32:45;;;;;;;1.77;1.67;;;30.60;96.70;;;;;;4902303;29;20057;-69
2023/06/15 12:35:29;;;;;;;1.55;1.45;;;30.70;96.70;;;;;;4881427;29;20113;-69
2023/06/15 12:37:57;;;;;;;4.05;1.75;;;30.70;96.70;;;;;;4888216;29;20128;-69
2023/06/15 12:40:27;;;;;;;2.65;1.42;;;30.90;96.70;;;;;;4902359;29;20053;-71
2023/06/15 12:42:59;;;;;;;3.03;1.50;;;30.90;96.70;;;;;;4891502;29;20049;-69
2023/06/15 12:45:28;;;;;;;1.88;1.50;;;30.90;96.70;;;;;;4902358;29;20136;-70
2023/06/15 12:47:57;;;;;;;1.45;1.35;;;30.90;96.70;;;;;;4886544;29;20060;-70
2023/06/15 12:50:25;;;;;;;1.38;1.27;;;30.90;96.70;;;;;;4901661;29;20065;-69
2023/06/15 12:52:55;;;;;;;2.75;1.90;;;31.00;96.70;;;;;;4866201;29;20074;-70
2023/06/15 12:55:23;;;;;;;2.40;1.23;;;31.10;96.70;;;;;;4886359;29;20061;-70
2023/06/15 12:57:52;;;;;;;1.60;1.45;;;31.00;96.70;;;;;;4886393;29;20041;-69
2023/06/15 13:00:25;;;;;;;1.73;1.27;;;31.30;96.70;;;;;;4888274;29;20565;-70
2023/06/15 13:02:53;;;;;;;2.28;1.42;;;31.10;96.70;;;;;;4886991;29;20056;-70
2023/06/15 13:05:21;;;;;;;1.70;1.38;;;31.30;96.70;;;;;;4883317;29;20165;-69
2023/06/15 13:07:50;;;;;;;2.05;1.85;;;31.50;96.70;;;;;;4888352;29;20053;-69